createdAt,value
2023-02-28T00:00:36.926Z,1.41
2023-02-28T00:03:03.927Z,1.50
2023-02-28T00:05:30.568Z,1.40
2023-02-28T00:07:57.296Z,1.29
2023-02-28T00:10:25.345Z,1.43
2023-02-28T00:12:52.776Z,1.31
2023-02-28T00:15:19.678Z,1.30
2023-02-28T00:17:46.836Z,1.01
2023-02-28T00:20:14.407Z,1.02
2023-02-28T00:22:42.304Z,1.11
2023-02-28T00:25:10.204Z,1.05
2023-02-28T00:27:37.182Z,0.88
2023-02-28T00:30:05.539Z,0.91
2023-02-28T00:32:32.019Z,1.03
2023-02-28T00:34:58.451Z,1.26
2023-02-28T00:37:24.922Z,1.23
2023-02-28T00:39:51.369Z,1.24
2023-02-28T00:42:17.908Z,1.26
2023-02-28T00:44:44.365Z,1.03
2023-02-28T00:47:11.825Z,1.10
2023-02-28T00:49:38.496Z,1.17
2023-02-28T00:52:05.056Z,1.17
2023-02-28T00:54:31.504Z,1.21
2023-02-28T00:56:58.080Z,1.42
2023-02-28T00:59:25.253Z,1.41
2023-02-28T01:01:51.754Z,1.40
2023-02-28T01:04:18.447Z,1.44
2023-02-28T01:06:44.992Z,1.26
2023-02-28T01:09:12.235Z,1.29
2023-02-28T01:11:38.777Z,1.21
2023-02-28T01:14:05.439Z,1.28
2023-02-28T01:16:31.986Z,1.30
2023-02-28T01:18:58.721Z,1.35
2023-02-28T01:21:25.172Z,1.31
2023-02-28T01:23:51.664Z,1.34
2023-02-28T01:26:19.762Z,1.32
2023-02-28T01:28:46.380Z,1.32
2023-02-28T01:31:13.238Z,1.27
2023-02-28T01:33:40.268Z,1.33
2023-02-28T01:36:08.690Z,1.40
2023-02-28T01:38:36.048Z,1.25
2023-02-28T01:41:02.754Z,1.70
2023-02-28T01:43:33.916Z,2.12
2023-02-28T01:46:00.408Z,2.01
2023-02-28T01:48:28.744Z,1.73
2023-02-28T01:50:57.108Z,1.43
2023-02-28T01:53:27.534Z,1.49
2023-02-28T01:55:54.880Z,1.28
2023-02-28T01:58:21.665Z,1.11
2023-02-28T02:00:48.894Z,1.05
2023-02-28T02:03:19.881Z,1.16
2023-02-28T02:05:49.295Z,1.31
2023-02-28T02:08:20.824Z,1.59
2023-02-28T02:10:51.215Z,1.94
2023-02-28T02:13:30.001Z,1.68
2023-02-28T02:16:02.652Z,1.59
2023-02-28T02:18:31.918Z,1.51
2023-02-28T02:21:17.349Z,1.56
2023-02-28T02:23:49.844Z,1.58
2023-02-28T02:26:31.696Z,1.69
2023-02-28T02:29:04.271Z,1.45
2023-02-28T02:31:49.531Z,1.47
2023-02-28T02:34:42.482Z,1.38
2023-02-28T02:37:29.917Z,1.41
2023-02-28T02:40:04.647Z,1.53
2023-02-28T02:42:41.704Z,1.26
2023-02-28T02:45:11.388Z,1.28
2023-02-28T02:47:38.791Z,1.19
2023-02-28T02:50:12.862Z,1.13
2023-02-28T02:52:43.146Z,1.38
2023-02-28T02:55:12.499Z,1.51
2023-02-28T02:57:46.962Z,1.54
2023-02-28T03:00:15.527Z,1.15
2023-02-28T03:02:42.171Z,1.22
2023-02-28T03:05:15.138Z,1.38
2023-02-28T03:07:41.718Z,1.61
2023-02-28T03:10:27.063Z,1.66
2023-02-28T03:13:01.477Z,1.54
2023-02-28T03:15:33.795Z,1.54
2023-02-28T03:18:11.172Z,1.39
2023-02-28T03:20:46.238Z,1.09
2023-02-28T03:23:25.332Z,1.04
2023-02-28T03:26:03.061Z,1.06
2023-02-28T03:28:29.759Z,1.04
2023-02-28T03:31:13.601Z,0.95
2023-02-28T03:33:43.048Z,0.97
2023-02-28T03:36:13.457Z,0.94
2023-02-28T03:38:46.082Z,1.13
2023-02-28T03:41:22.042Z,1.37
2023-02-28T03:43:54.550Z,1.46
2023-02-28T03:46:24.022Z,1.04
2023-02-28T03:48:54.636Z,0.98
2023-02-28T03:51:23.945Z,0.94
2023-02-28T03:53:55.498Z,1.03
2023-02-28T03:56:25.650Z,0.91
2023-02-28T03:59:10.733Z,1.09
2023-02-28T04:01:42.435Z,0.89
2023-02-28T04:04:13.088Z,1.11
2023-02-28T04:06:39.952Z,1.25
2023-02-28T04:09:07.302Z,1.21
2023-02-28T04:11:41.333Z,1.02
2023-02-28T04:14:08.997Z,1.10
2023-02-28T04:16:37.936Z,1.13
2023-02-28T04:19:06.246Z,1.22
2023-02-28T04:21:34.270Z,1.37
2023-02-28T04:24:01.758Z,1.15
2023-02-28T04:26:35.382Z,1.28
2023-02-28T04:29:02.446Z,1.12
2023-02-28T04:31:29.579Z,1.21
2023-02-28T04:33:56.256Z,1.01
2023-02-28T04:36:24.167Z,0.92
2023-02-28T04:38:50.957Z,0.74
2023-02-28T04:41:17.827Z,0.89
2023-02-28T04:43:44.453Z,0.88
2023-02-28T04:46:11.454Z,1.05
2023-02-28T04:48:38.829Z,1.20
2023-02-28T04:51:07.425Z,1.29
2023-02-28T04:53:34.059Z,1.32
2023-02-28T04:56:00.511Z,1.21
2023-02-28T04:58:27.049Z,1.28
2023-02-28T05:00:54.010Z,1.31
2023-02-28T05:03:21.779Z,1.34
2023-02-28T05:05:48.436Z,1.22
2023-02-28T05:08:14.937Z,1.16
2023-02-28T05:10:41.422Z,1.27
2023-02-28T05:13:07.851Z,1.27
2023-02-28T05:15:35.727Z,1.41
2023-02-28T05:18:02.418Z,1.28
2023-02-28T05:20:28.908Z,1.32
2023-02-28T05:22:55.375Z,1.54
2023-02-28T05:25:25.318Z,1.47
2023-02-28T05:27:51.909Z,1.34
2023-02-28T05:30:18.505Z,1.34
2023-02-28T05:32:44.985Z,1.33
2023-02-28T05:35:12.382Z,1.45
2023-02-28T05:37:39.702Z,1.56
2023-02-28T05:40:12.664Z,1.55
2023-02-28T05:42:39.196Z,1.48
2023-02-28T05:45:06.005Z,1.48
2023-02-28T05:47:32.510Z,1.39
2023-02-28T05:49:58.975Z,1.46
2023-02-28T05:52:25.463Z,1.46
2023-02-28T05:54:51.946Z,1.66
2023-02-28T05:57:24.314Z,2.02
2023-02-28T05:59:51.464Z,1.90
2023-02-28T06:02:18.517Z,1.66
2023-02-28T06:04:45.337Z,1.55
2023-02-28T06:07:12.208Z,1.57
2023-02-28T06:09:38.957Z,1.65
2023-02-28T06:12:10.759Z,1.46
2023-02-28T06:14:37.332Z,1.49
2023-02-28T06:17:04.607Z,1.57
2023-02-28T06:19:31.528Z,1.51
2023-02-28T06:21:58.261Z,1.54
2023-02-28T06:24:25.829Z,1.51
2023-02-28T06:26:52.293Z,1.69
2023-02-28T06:29:19.361Z,1.74
2023-02-28T06:31:46.433Z,1.67
2023-02-28T06:34:13.453Z,1.62
2023-02-28T06:36:40.577Z,1.65
2023-02-28T06:39:07.011Z,1.65
2023-02-28T06:41:53.643Z,1.59
2023-02-28T06:44:21.054Z,1.59
2023-02-28T06:46:47.670Z,1.68
2023-02-28T06:49:14.238Z,1.72
2023-02-28T06:51:42.572Z,1.77
2023-02-28T06:54:10.617Z,1.90
2023-02-28T06:56:37.146Z,2.20
2023-02-28T06:59:04.390Z,2.07
2023-02-28T07:01:32.937Z,2.03
2023-02-28T07:04:01.022Z,2.21
2023-02-28T07:06:28.214Z,1.94
2023-02-28T07:08:55.094Z,2.16
2023-02-28T07:11:23.487Z,1.95
2023-02-28T07:13:51.854Z,1.91
2023-02-28T07:16:18.533Z,1.98
2023-02-28T07:18:45.507Z,2.20
2023-02-28T07:21:12.106Z,2.07
2023-02-28T07:23:39.472Z,2.07
2023-02-28T07:26:06.948Z,2.37
2023-02-28T07:28:33.427Z,2.06
2023-02-28T07:31:07.157Z,1.92
2023-02-28T07:33:34.938Z,2.56
2023-02-28T07:36:05.451Z,2.41
2023-02-28T07:38:34.197Z,2.08
2023-02-28T07:41:00.666Z,2.20
2023-02-28T07:43:27.167Z,2.18
2023-02-28T07:45:53.682Z,2.13
2023-02-28T07:48:20.158Z,2.26
2023-02-28T07:50:56.330Z,3.13
2023-02-28T07:53:23.306Z,2.69
2023-02-28T07:55:49.991Z,2.42
2023-02-28T07:58:16.493Z,2.07
2023-02-28T08:00:43.024Z,2.21
2023-02-28T08:03:13.967Z,2.15
2023-02-28T08:05:41.193Z,2.01
2023-02-28T08:08:08.164Z,2.12
2023-02-28T08:10:34.684Z,2.31
2023-02-28T08:13:01.181Z,2.41
2023-02-28T08:15:27.797Z,2.31
2023-02-28T08:17:54.537Z,2.28
2023-02-28T08:20:21.019Z,2.26
2023-02-28T08:22:47.797Z,2.90
2023-02-28T08:25:14.297Z,2.26
2023-02-28T08:27:40.772Z,2.36
2023-02-28T08:30:07.602Z,2.14
2023-02-28T08:32:34.386Z,2.96
2023-02-28T08:35:01.100Z,2.62
2023-02-28T08:37:27.686Z,2.33
2023-02-28T08:39:56.405Z,2.40
2023-02-28T08:42:23.462Z,2.40
2023-02-28T08:44:49.924Z,2.83
2023-02-28T08:47:16.436Z,2.67
2023-02-28T08:49:42.946Z,3.01
2023-02-28T08:52:09.621Z,2.91
2023-02-28T08:54:36.374Z,2.70
2023-02-28T08:57:03.409Z,2.50
2023-02-28T08:59:30.044Z,2.99
2023-02-28T09:01:56.521Z,2.88
2023-02-28T09:04:25.174Z,2.59
2023-02-28T09:06:52.140Z,2.81
2023-02-28T09:09:18.588Z,2.82
2023-02-28T09:11:45.075Z,2.96
2023-02-28T09:14:11.664Z,2.64
2023-02-28T09:16:38.417Z,2.50
2023-02-28T09:19:05.035Z,2.59
2023-02-28T09:21:31.723Z,2.77
2023-02-28T09:23:58.362Z,2.52
2023-02-28T09:26:26.661Z,2.66
2023-02-28T09:28:53.510Z,2.43
2023-02-28T09:31:21.954Z,2.76
2023-02-28T09:33:52.380Z,3.01
2023-02-28T09:36:19.467Z,2.99
2023-02-28T09:38:48.753Z,2.75
2023-02-28T09:41:20.893Z,2.64
2023-02-28T09:43:50.349Z,2.76
2023-02-28T09:46:32.735Z,2.85
2023-02-28T09:49:01.608Z,3.40
2023-02-28T09:51:43.456Z,3.02
2023-02-28T09:54:19.896Z,2.83
2023-02-28T09:56:53.235Z,2.92
2023-02-28T09:59:35.055Z,3.46
2023-02-28T10:02:10.313Z,2.80
2023-02-28T10:04:46.799Z,2.49
2023-02-28T10:07:32.203Z,2.72
2023-02-28T10:10:00.171Z,2.97
2023-02-28T10:12:27.812Z,2.86
2023-02-28T10:14:56.143Z,3.32
2023-02-28T10:17:27.825Z,3.46
2023-02-28T10:20:02.248Z,3.87
2023-02-28T10:22:37.068Z,3.84
2023-02-28T10:25:16.490Z,3.95
2023-02-28T10:27:43.028Z,3.76
2023-02-28T10:30:14.716Z,3.81
2023-02-28T10:32:43.408Z,3.53
2023-02-28T10:35:09.864Z,3.78
2023-02-28T10:37:47.047Z,3.95
2023-02-28T10:40:19.338Z,3.85
2023-02-28T10:42:59.334Z,3.80
2023-02-28T10:45:26.489Z,3.80
2023-02-28T10:47:56.425Z,4.26
2023-02-28T10:50:29.254Z,4.64
2023-02-28T10:52:55.950Z,4.46
2023-02-28T10:55:26.252Z,3.79
2023-02-28T10:57:52.937Z,4.70
2023-02-28T11:00:22.605Z,4.83
2023-02-28T11:02:49.762Z,4.07
2023-02-28T11:05:30.026Z,3.86
2023-02-28T11:08:12.354Z,4.38
2023-02-28T11:10:39.383Z,4.21
2023-02-28T11:13:06.517Z,4.47
2023-02-28T11:15:34.230Z,4.90
2023-02-28T11:18:09.747Z,4.32
2023-02-28T11:20:36.483Z,4.15
2023-02-28T11:23:05.172Z,5.14
2023-02-28T11:25:33.824Z,6.01
2023-02-28T11:28:07.215Z,5.72
2023-02-28T11:30:38.784Z,5.77
2023-02-28T11:33:23.646Z,5.61
2023-02-28T11:35:50.866Z,6.14
2023-02-28T11:38:17.534Z,5.33
2023-02-28T11:40:53.101Z,5.26
2023-02-28T11:43:25.593Z,6.26
2023-02-28T11:46:11.135Z,5.04
2023-02-28T11:48:40.635Z,6.30
2023-02-28T11:51:22.860Z,6.62
2023-02-28T11:53:54.254Z,5.78
2023-02-28T11:56:26.706Z,5.06
2023-02-28T11:58:53.120Z,5.38
2023-02-28T12:01:19.579Z,5.43
2023-02-28T12:03:46.028Z,5.50
2023-02-28T12:06:12.505Z,5.28
2023-02-28T12:08:42.017Z,5.70
2023-02-28T12:11:11.563Z,5.47
2023-02-28T12:13:49.224Z,5.71
2023-02-28T12:16:37.195Z,5.77
2023-02-28T12:19:33.026Z,5.77
2023-02-28T12:21:59.432Z,5.95
2023-02-28T12:24:44.670Z,6.00
2023-02-28T12:27:14.283Z,4.94
2023-02-28T12:30:10.165Z,5.53
2023-02-28T12:32:40.510Z,4.99
2023-02-28T12:35:10.097Z,5.08
2023-02-28T12:37:46.771Z,4.96
2023-02-28T12:40:24.161Z,5.58
2023-02-28T12:42:52.628Z,5.84
2023-02-28T12:45:27.152Z,5.45
2023-02-28T12:47:58.546Z,4.81
2023-02-28T12:50:26.641Z,5.89
2023-02-28T12:52:58.132Z,5.11
2023-02-28T12:55:30.827Z,5.31
2023-02-28T12:58:06.488Z,5.35
2023-02-28T13:00:36.130Z,5.17
2023-02-28T13:03:22.801Z,5.35
2023-02-28T13:06:08.070Z,5.20
2023-02-28T13:08:39.051Z,6.06
2023-02-28T13:11:13.116Z,5.64
2023-02-28T13:13:46.448Z,5.55
2023-02-28T13:16:13.088Z,4.98
2023-02-28T13:18:47.225Z,5.41
2023-02-28T13:21:32.094Z,4.77
2023-02-28T13:24:03.582Z,4.68
2023-02-28T13:26:39.306Z,4.84
2023-02-28T13:29:11.721Z,4.62
2023-02-28T13:32:01.047Z,4.86
2023-02-28T13:34:27.911Z,5.03
2023-02-28T13:37:14.313Z,5.73
2023-02-28T13:39:40.743Z,5.72
2023-02-28T13:42:25.928Z,5.55
2023-02-28T13:45:16.213Z,5.50
2023-02-28T13:47:44.620Z,5.80
2023-02-28T13:50:23.212Z,5.28
2023-02-28T13:52:56.273Z,5.71
2023-02-28T13:55:27.965Z,5.23
2023-02-28T13:58:13.930Z,5.96
2023-02-28T14:00:49.418Z,6.31
2023-02-28T14:03:26.845Z,6.54
2023-02-28T14:06:09.585Z,6.95
2023-02-28T14:08:36.170Z,6.02
2023-02-28T14:11:09.641Z,6.20
2023-02-28T14:13:48.181Z,7.72
2023-02-28T14:16:16.314Z,7.74
2023-02-28T14:18:48.964Z,7.44
2023-02-28T14:21:21.068Z,7.66
2023-02-28T14:23:58.211Z,6.15
2023-02-28T14:26:43.570Z,6.10
2023-02-28T14:29:18.895Z,7.26
2023-02-28T14:31:54.549Z,7.19
2023-02-28T14:34:32.819Z,6.92
2023-02-28T14:37:01.293Z,6.40
2023-02-28T14:39:31.763Z,6.57
2023-02-28T14:42:04.095Z,6.84
2023-02-28T14:44:30.997Z,6.69
2023-02-28T14:47:09.789Z,6.28
2023-02-28T14:49:37.804Z,6.86
2023-02-28T14:52:13.108Z,6.99
2023-02-28T14:54:40.384Z,6.29
2023-02-28T14:57:06.873Z,6.28
2023-02-28T14:59:34.999Z,6.47
2023-02-28T15:02:18.057Z,6.96
2023-02-28T15:04:44.589Z,6.53
2023-02-28T15:07:12.289Z,5.97
2023-02-28T15:09:38.778Z,6.04
2023-02-28T15:12:05.703Z,5.81
2023-02-28T15:14:33.243Z,6.08
2023-02-28T15:17:07.044Z,6.68
2023-02-28T15:19:35.743Z,6.42
2023-02-28T15:22:07.796Z,6.25
2023-02-28T15:24:34.277Z,6.20
2023-02-28T15:27:01.884Z,6.31
2023-02-28T15:29:30.063Z,6.69
2023-02-28T15:32:04.421Z,6.54
2023-02-28T15:34:43.042Z,6.42
2023-02-28T15:37:31.024Z,5.97
2023-02-28T15:39:58.229Z,5.92
2023-02-28T15:42:32.399Z,5.47
2023-02-28T15:45:00.642Z,5.48
2023-02-28T15:47:28.365Z,5.31
2023-02-28T15:50:00.308Z,5.27
2023-02-28T15:52:39.649Z,5.47
2023-02-28T15:55:11.028Z,5.28
2023-02-28T15:57:40.661Z,5.25
2023-02-28T16:00:11.736Z,5.26
2023-02-28T16:02:39.031Z,4.87
2023-02-28T16:05:08.555Z,4.90
2023-02-28T16:07:35.898Z,4.77
2023-02-28T16:10:02.888Z,4.62
2023-02-28T16:12:33.926Z,4.50
2023-02-28T16:15:03.822Z,4.27
2023-02-28T16:17:32.276Z,4.31
2023-02-28T16:19:59.107Z,4.34
2023-02-28T16:22:25.786Z,4.10
2023-02-28T16:24:52.389Z,4.14
2023-02-28T16:27:26.024Z,4.07
2023-02-28T16:29:53.272Z,3.98
2023-02-28T16:32:19.835Z,3.93
2023-02-28T16:34:46.359Z,3.48
2023-02-28T16:37:16.854Z,3.46
2023-02-28T16:39:43.577Z,3.08
2023-02-28T16:42:14.313Z,2.95
2023-02-28T16:44:41.239Z,2.85
2023-02-28T16:47:07.739Z,2.77
2023-02-28T16:49:34.276Z,2.79
2023-02-28T16:52:00.787Z,2.47
2023-02-28T16:54:27.566Z,2.55
2023-02-28T16:56:54.270Z,2.77
2023-02-28T16:59:24.002Z,2.78
2023-02-28T17:01:50.846Z,2.64
2023-02-28T17:04:17.434Z,2.45
2023-02-28T17:06:43.912Z,2.61
2023-02-28T17:09:16.928Z,2.69
2023-02-28T17:11:43.433Z,2.56
2023-02-28T17:14:09.923Z,2.66
2023-02-28T17:16:37.452Z,2.70
2023-02-28T17:19:05.930Z,2.90
2023-02-28T17:21:34.013Z,3.00
2023-02-28T17:24:01.105Z,2.82
2023-02-28T17:26:29.236Z,2.81
2023-02-28T17:28:59.614Z,2.92
2023-02-28T17:31:27.052Z,2.88
2023-02-28T17:33:53.968Z,2.81
2023-02-28T17:36:25.418Z,2.90
2023-02-28T17:38:52.497Z,2.92
2023-02-28T17:41:18.997Z,2.95
2023-02-28T17:43:45.602Z,3.27
2023-02-28T17:46:21.259Z,3.12
2023-02-28T17:48:48.261Z,3.12
2023-02-28T17:51:15.598Z,3.26
2023-02-28T17:53:42.304Z,3.25
2023-02-28T17:56:17.172Z,3.05
2023-02-28T17:58:43.886Z,3.99
2023-02-28T18:01:10.573Z,3.89
2023-02-28T18:03:37.205Z,3.71
2023-02-28T18:06:03.979Z,3.81
2023-02-28T18:08:31.667Z,3.64
2023-02-28T18:10:58.112Z,3.41
2023-02-28T18:13:24.558Z,3.38
2023-02-28T18:15:51.146Z,3.29
2023-02-28T18:18:17.738Z,3.51
2023-02-28T18:20:44.273Z,3.54
2023-02-28T18:23:10.761Z,3.53
2023-02-28T18:25:38.782Z,3.17
2023-02-28T18:28:05.636Z,2.97
2023-02-28T18:30:33.298Z,3.07
2023-02-28T18:33:00.196Z,3.07
2023-02-28T18:35:36.299Z,3.32
2023-02-28T18:38:07.590Z,3.46
2023-02-28T18:40:34.213Z,3.37
2023-02-28T18:43:01.261Z,3.46
2023-02-28T18:45:27.897Z,3.51
2023-02-28T18:47:54.446Z,3.40
2023-02-28T18:50:21.004Z,3.47
2023-02-28T18:52:47.466Z,3.59
2023-02-28T18:55:18.651Z,3.34
2023-02-28T18:57:48.211Z,3.05
2023-02-28T19:00:15.941Z,3.06
2023-02-28T19:02:43.004Z,2.91
2023-02-28T19:05:11.655Z,2.98
2023-02-28T19:07:38.380Z,2.94
2023-02-28T19:10:05.177Z,2.98
2023-02-28T19:12:35.477Z,3.12
2023-02-28T19:15:03.072Z,3.33
2023-02-28T19:17:29.603Z,3.18
2023-02-28T19:19:56.148Z,3.16
2023-02-28T19:22:22.690Z,3.16
2023-02-28T19:24:49.890Z,3.16
2023-02-28T19:27:17.783Z,3.01
2023-02-28T19:29:44.211Z,3.22
2023-02-28T19:32:10.808Z,3.32
2023-02-28T19:34:37.272Z,3.33
2023-02-28T19:37:03.727Z,3.26
2023-02-28T19:39:37.720Z,3.37
2023-02-28T19:42:04.238Z,3.28
2023-02-28T19:44:31.251Z,3.26
2023-02-28T19:46:57.729Z,3.21
2023-02-28T19:49:25.408Z,3.14
2023-02-28T19:51:52.595Z,3.08
2023-02-28T19:54:19.026Z,3.25
2023-02-28T19:56:45.574Z,3.11
2023-02-28T19:59:21.156Z,3.01
2023-02-28T20:01:48.905Z,2.97
2023-02-28T20:04:15.354Z,3.22
2023-02-28T20:06:41.832Z,3.25
2023-02-28T20:09:08.272Z,3.44
2023-02-28T20:11:34.732Z,3.21
2023-02-28T20:14:05.279Z,3.08
2023-02-28T20:16:32.607Z,2.88
2023-02-28T20:18:59.351Z,2.80
2023-02-28T20:21:25.817Z,2.76
2023-02-28T20:23:52.378Z,3.04
2023-02-28T20:26:21.820Z,3.03
2023-02-28T20:28:48.389Z,3.02
2023-02-28T20:31:19.720Z,2.93
2023-02-28T20:33:47.002Z,3.09
2023-02-28T20:36:15.559Z,3.03
2023-02-28T20:38:42.316Z,2.90
2023-02-28T20:41:09.185Z,2.85
2023-02-28T20:43:35.645Z,2.93
2023-02-28T20:46:02.985Z,3.00
2023-02-28T20:48:30.603Z,3.10
2023-02-28T20:50:57.950Z,3.13
2023-02-28T20:53:25.409Z,3.19
2023-02-28T20:55:55.205Z,3.05
2023-02-28T20:58:22.378Z,3.01
2023-02-28T21:00:48.900Z,3.20
2023-02-28T21:03:15.400Z,2.91
2023-02-28T21:05:41.836Z,3.03
2023-02-28T21:08:08.311Z,3.04
2023-02-28T21:10:34.757Z,3.20
2023-02-28T21:13:01.177Z,3.14
2023-02-28T21:15:27.685Z,2.90
2023-02-28T21:17:54.125Z,3.00
2023-02-28T21:20:23.498Z,2.97
2023-02-28T21:22:50.032Z,2.95
2023-02-28T21:25:16.847Z,2.85
2023-02-28T21:27:43.409Z,2.97
2023-02-28T21:30:10.303Z,2.95
2023-02-28T21:32:37.065Z,3.04
2023-02-28T21:35:03.585Z,3.06
2023-02-28T21:37:30.028Z,3.15
2023-02-28T21:39:56.563Z,3.28
2023-02-28T21:42:23.149Z,3.28
2023-02-28T21:44:50.269Z,3.21
2023-02-28T21:47:19.048Z,3.25
2023-02-28T21:49:47.186Z,3.33
2023-02-28T21:52:15.503Z,3.28
2023-02-28T21:54:44.107Z,3.04
2023-02-28T21:57:14.996Z,2.99
2023-02-28T21:59:44.248Z,2.93
2023-02-28T22:02:13.026Z,3.04
2023-02-28T22:04:41.470Z,3.05
2023-02-28T22:07:08.312Z,3.30
2023-02-28T22:09:35.871Z,3.24
2023-02-28T22:12:03.792Z,3.13
2023-02-28T22:14:30.781Z,3.10
2023-02-28T22:16:57.537Z,3.30
2023-02-28T22:19:24.345Z,3.17
2023-02-28T22:21:51.623Z,3.01
2023-02-28T22:24:20.570Z,3.33
2023-02-28T22:26:48.458Z,3.50
2023-02-28T22:29:14.951Z,3.48
2023-02-28T22:31:41.579Z,3.46
2023-02-28T22:34:09.298Z,3.31
2023-02-28T22:36:36.200Z,3.34
2023-02-28T22:39:03.068Z,3.42
2023-02-28T22:41:30.145Z,3.43
2023-02-28T22:43:57.898Z,3.28
2023-02-28T22:46:24.843Z,3.25
2023-02-28T22:48:51.842Z,3.56
2023-02-28T22:51:19.985Z,3.30
2023-02-28T22:53:48.032Z,3.20
2023-02-28T22:56:15.803Z,3.40
2023-02-28T22:58:44.259Z,3.49
2023-02-28T23:01:13.272Z,3.30
2023-02-28T23:03:40.187Z,3.38
2023-02-28T23:06:14.100Z,3.30
2023-02-28T23:08:40.906Z,3.37
2023-02-28T23:11:07.346Z,3.26
2023-02-28T23:13:33.885Z,3.35
2023-02-28T23:16:00.495Z,3.13
2023-02-28T23:18:26.960Z,3.08
2023-02-28T23:20:56.600Z,3.07
2023-02-28T23:23:23.660Z,3.18
2023-02-28T23:25:50.139Z,3.19
2023-02-28T23:28:16.696Z,3.04
2023-02-28T23:30:43.189Z,3.02
2023-02-28T23:33:09.755Z,2.96
2023-02-28T23:35:36.306Z,3.09
2023-02-28T23:38:02.840Z,3.02
2023-02-28T23:40:29.326Z,3.05
2023-02-28T23:42:55.942Z,2.97
2023-02-28T23:45:22.405Z,3.02
2023-02-28T23:47:48.824Z,3.02
2023-02-28T23:50:15.494Z,2.86
2023-02-28T23:52:41.949Z,2.82
2023-02-28T23:55:08.667Z,2.81
2023-02-28T23:57:35.205Z,2.78
